Time;durP1;ratioP1;P1;durP2;ratioP2;P2;SDS_P1;SDS_P2;PMS_P1;PMS_P2;Temp;Humidity;BMP_temperature;BMP_pressure;BME280_temperature;BME280_humidity;BME280_pressure;Samples;Min_cycle;Max_cycle;Signal;HPM_P1;HPM_P2
2024/02/09 00:00:07;;;;;;;14.83;8.03;;;10.10;99.90;;;;;;5093510;28;20181;-75
2024/02/09 00:02:34;;;;;;;14.53;7.70;;;10.10;99.90;;;;;;5094415;28;20166;-74
2024/02/09 00:04:59;;;;;;;17.50;8.60;;;10.10;99.90;;;;;;5094121;28;20201;-74
2024/02/09 00:07:25;;;;;;;18.03;8.37;;;10.10;99.90;;;;;;5094073;28;20204;-74
2024/02/09 00:09:50;;;;;;;15.17;8.00;;;10.10;99.90;;;;;;5094146;28;20166;-74
2024/02/09 00:12:20;;;;;;;15.57;8.47;;;10.00;99.90;;;;;;5095106;28;20170;-74
2024/02/09 00:14:47;;;;;;;23.47;8.83;;;10.00;99.90;;;;;;5094425;28;20162;-74
2024/02/09 00:17:13;;;;;;;13.97;8.60;;;10.00;99.90;;;;;;5093711;28;20657;-74
2024/02/09 00:19:39;;;;;;;20.23;8.57;;;10.00;99.90;;;;;;5093716;28;20166;-74
2024/02/09 00:22:04;;;;;;;14.60;8.07;;;10.00;99.90;;;;;;5093472;28;20264;-74
2024/02/09 00:24:31;;;;;;;12.70;7.90;;;10.00;99.90;;;;;;5093661;28;20700;-74
2024/02/09 00:27:00;;;;;;;15.63;7.83;;;9.90;99.90;;;;;;5093200;28;20503;-75
2024/02/09 00:29:28;;;;;;;13.77;7.87;;;9.90;99.90;;;;;;5093692;28;20162;-74
2024/02/09 00:31:54;;;;;;;18.83;8.27;;;9.90;99.90;;;;;;5093194;28;20166;-74
2024/02/09 00:34:19;;;;;;;15.97;7.93;;;9.90;99.90;;;;;;5075659;28;20177;-74
2024/02/09 00:36:50;;;;;;;17.23;8.30;;;9.90;99.90;;;;;;5093165;28;20178;-74
2024/02/09 00:39:16;;;;;;;15.37;7.80;;;9.90;99.90;;;;;;5093606;28;20550;-74
2024/02/09 00:41:42;;;;;;;17.77;8.00;;;9.90;99.90;;;;;;5093096;28;20166;-74
2024/02/09 00:44:08;;;;;;;16.63;8.70;;;9.90;99.90;;;;;;5093443;28;20234;-74
2024/02/09 00:46:39;;;;;;;17.10;7.83;;;9.90;99.90;;;;;;5093607;28;20174;-74
2024/02/09 00:49:07;;;;;;;17.03;8.60;;;9.90;99.90;;;;;;5093053;28;20173;-76
2024/02/09 00:51:33;;;;;;;12.40;7.73;;;9.90;99.90;;;;;;5093062;28;20169;-74
2024/02/09 00:54:00;;;;;;;18.70;8.13;;;9.90;99.90;;;;;;5093137;28;20157;-74
2024/02/09 00:56:26;;;;;;;16.50;8.47;;;10.00;99.90;;;;;;5093619;28;20241;-74
2024/02/09 00:58:54;;;;;;;22.43;8.53;;;10.00;99.90;;;;;;5092469;28;20165;-74
2024/02/09 01:01:22;;;;;;;20.73;9.03;;;10.00;99.90;;;;;;5092860;28;20216;-74
2024/02/09 01:03:48;;;;;;;18.23;8.30;;;10.00;99.90;;;;;;5092582;28;20206;-74
2024/02/09 01:06:14;;;;;;;16.27;8.73;;;10.00;99.90;;;;;;5092998;28;20624;-74
2024/02/09 01:08:39;;;;;;;16.33;7.90;;;10.00;99.90;;;;;;5092862;28;20273;-74
2024/02/09 01:11:09;;;;;;;18.37;8.33;;;10.00;99.90;;;;;;5092742;28;20539;-75
2024/02/09 02:46:19;;;;;;;12.93;8.33;;;9.70;99.90;;;;;;5091250;28;20201;-74
2024/02/09 03:05:20;;;;;;;16.20;8.87;;;9.70;99.90;;;;;;5091430;28;20251;-75
2024/02/09 03:07:49;;;;;;;12.83;8.40;;;9.70;99.90;;;;;;5090763;28;20189;-75
2024/02/09 03:10:19;;;;;;;11.13;7.70;;;9.70;99.90;;;;;;5090798;28;20174;-75
2024/02/09 03:12:45;;;;;;;10.13;7.77;;;9.70;99.90;;;;;;5091238;28;20240;-75
2024/02/09 03:15:10;;;;;;;17.47;9.03;;;9.70;99.90;;;;;;5091215;28;20173;-75
2024/02/09 03:17:39;;;;;;;10.40;8.93;;;9.70;99.90;;;;;;5091351;28;20554;-75
2024/02/09 03:20:06;;;;;;;14.17;8.10;;;9.70;99.90;;;;;;5091291;28;20273;-74
2024/02/09 03:22:35;;;;;;;13.60;9.27;;;9.70;99.90;;;;;;5090737;28;20174;-74
2024/02/09 03:25:02;;;;;;;15.83;9.20;;;9.70;99.90;;;;;;5090901;28;20633;-74
2024/02/09 03:27:39;;;;;;;10.93;8.90;;;9.70;99.90;;;;;;5090663;28;20289;-74
2024/02/09 03:30:06;;;;;;;12.17;8.70;;;9.70;99.90;;;;;;5090609;28;20166;-74
2024/02/09 03:32:33;;;;;;;11.73;9.27;;;9.70;99.90;;;;;;5091151;28;20600;-74
2024/02/09 03:34:59;;;;;;;15.70;8.93;;;9.70;99.90;;;;;;5091280;28;20177;-74
2024/02/09 03:37:26;;;;;;;10.87;8.73;;;9.70;99.90;;;;;;5090745;28;20236;-74
2024/02/09 03:39:53;;;;;;;12.10;8.43;;;9.70;99.90;;;;;;5091157;28;20173;-74
2024/02/09 03:42:23;;;;;;;13.20;8.70;;;9.70;99.90;;;;;;5090856;28;20173;-74
2024/02/09 03:44:49;;;;;;;16.03;8.60;;;9.70;99.90;;;;;;5090987;28;20182;-74
2024/02/09 03:47:17;;;;;;;11.83;7.97;;;9.70;99.90;;;;;;5090590;28;20212;-74
2024/02/09 03:49:43;;;;;;;16.97;8.07;;;9.70;99.90;;;;;;5090774;28;20244;-74
2024/02/09 03:52:09;;;;;;;11.13;7.23;;;9.70;99.90;;;;;;5090631;28;20174;-74
2024/02/09 03:54:34;;;;;;;11.07;6.77;;;9.70;99.90;;;;;;5090631;28;20188;-74
2024/02/09 03:57:00;;;;;;;11.33;5.90;;;9.70;99.90;;;;;;5090734;28;20561;-74
2024/02/09 03:59:28;;;;;;;10.27;6.27;;;9.70;99.90;;;;;;5090442;28;20192;-74
2024/02/09 04:01:54;;;;;;;7.90;5.47;;;9.80;99.90;;;;;;5093469;28;20195;-74
2024/02/09 04:04:20;;;;;;;9.30;5.23;;;9.80;99.90;;;;;;5094412;28;20193;-74
2024/02/09 04:06:46;;;;;;;8.63;4.90;;;9.80;99.90;;;;;;5094371;28;20663;-74
2024/02/09 04:09:11;;;;;;;7.67;5.20;;;9.80;99.90;;;;;;5093908;28;20173;-74
2024/02/09 04:11:37;;;;;;;7.73;5.30;;;9.80;99.90;;;;;;5093973;28;20174;-74
2024/02/09 04:14:02;;;;;;;7.30;4.40;;;9.80;99.90;;;;;;5094340;28;20231;-74
2024/02/09 04:16:28;;;;;;;4.73;4.33;;;9.80;99.90;;;;;;5094760;28;20684;-75
2024/02/09 04:18:55;;;;;;;4.60;4.30;;;9.80;99.90;;;;;;5096109;28;20177;-74
2024/02/09 04:21:20;;;;;;;5.03;4.53;;;9.80;99.90;;;;;;5094539;28;20252;-74
2024/02/09 04:23:46;;;;;;;4.80;4.30;;;9.70;99.90;;;;;;5093726;28;20697;-74
2024/02/09 04:26:12;;;;;;;5.07;4.57;;;9.70;99.90;;;;;;5093959;28;20204;-74
2024/02/09 04:28:38;;;;;;;4.80;4.40;;;9.80;99.90;;;;;;5093981;28;20181;-74
2024/02/09 04:31:03;;;;;;;4.70;4.40;;;9.70;99.90;;;;;;5093698;28;20223;-74
2024/02/09 04:33:31;;;;;;;6.73;4.83;;;9.80;99.90;;;;;;5094033;28;20173;-75
2024/02/09 04:35:58;;;;;;;4.77;4.47;;;9.80;99.90;;;;;;5093642;28;20165;-75
2024/02/09 04:38:24;;;;;;;5.93;4.57;;;9.80;99.90;;;;;;5093670;28;20220;-75
2024/02/09 04:40:49;;;;;;;6.17;4.10;;;9.80;99.90;;;;;;5093549;28;20174;-75
2024/02/09 04:43:15;;;;;;;5.03;4.53;;;9.80;99.90;;;;;;5093779;28;20196;-75
2024/02/09 04:45:41;;;;;;;10.73;4.37;;;9.80;99.90;;;;;;5093537;28;20205;-75
2024/02/09 04:48:07;;;;;;;5.10;4.40;;;9.90;99.90;;;;;;5093389;28;20189;-75
2024/02/09 04:50:32;;;;;;;5.10;4.53;;;9.90;99.90;;;;;;5092969;28;20201;-75
2024/02/09 04:52:58;;;;;;;5.23;4.67;;;9.80;99.90;;;;;;5093839;28;20170;-75
2024/02/09 04:55:24;;;;;;;5.10;4.60;;;9.80;99.90;;;;;;5093481;28;20169;-75
2024/02/09 04:57:49;;;;;;;4.73;4.40;;;9.80;99.90;;;;;;5075122;28;20196;-75
2024/02/09 05:00:15;;;;;;;7.70;4.57;;;9.80;99.90;;;;;;5092642;28;20605;-75
2024/02/09 05:02:44;;;;;;;5.30;4.43;;;9.80;99.90;;;;;;5093326;28;20169;-75
2024/02/09 05:05:10;;;;;;;5.00;4.57;;;9.80;99.90;;;;;;5092554;28;20250;-75
2024/02/09 05:07:37;;;;;;;5.63;5.13;;;9.80;99.90;;;;;;5093080;28;20685;-75
2024/02/09 05:10:03;;;;;;;5.63;5.13;;;9.90;99.90;;;;;;5092604;28;20215;-75
2024/02/09 05:12:31;;;;;;;5.40;4.93;;;9.90;99.90;;;;;;5092645;28;20186;-75
2024/02/09 05:14:57;;;;;;;6.13;5.47;;;9.90;99.90;;;;;;5092886;28;20169;-75
2024/02/09 05:17:23;;;;;;;6.50;4.83;;;9.90;99.90;;;;;;5092898;28;20188;-75
2024/02/09 05:19:50;;;;;;;9.10;4.93;;;9.90;99.90;;;;;;5092168;28;20177;-75
2024/02/09 05:22:16;;;;;;;6.53;4.60;;;9.90;99.90;;;;;;5092659;28;20184;-75
2024/02/09 05:24:42;;;;;;;5.30;4.80;;;9.90;99.90;;;;;;5092780;28;20189;-75
2024/02/09 05:27:10;;;;;;;5.23;4.73;;;9.80;99.90;;;;;;5092624;28;20194;-75
2024/02/09 05:29:35;;;;;;;6.03;5.17;;;9.80;99.90;;;;;;5092464;28;20173;-75
2024/02/09 05:32:01;;;;;;;4.87;4.47;;;9.80;99.90;;;;;;5092228;28;20645;-75
2024/02/09 05:34:27;;;;;;;5.43;4.93;;;9.70;99.90;;;;;;5092616;28;20710;-75
2024/02/09 05:39:20;;;;;;;5.43;4.93;;;9.70;99.90;;;;;;5115047;28;20205;-75
2024/02/09 05:41:46;;;;;;;5.30;4.77;;;9.70;99.90;;;;;;5116715;28;20176;-74
2024/02/09 05:44:12;;;;;;;9.50;5.73;;;9.70;99.90;;;;;;5105465;27;20183;-73
2024/02/09 05:46:37;;;;;;;4.80;4.50;;;9.70;99.90;;;;;;5136518;27;20228;-73
2024/02/09 05:49:06;;;;;;;5.03;4.67;;;9.70;99.90;;;;;;5135524;27;20674;-74
2024/02/09 05:51:33;;;;;;;4.13;3.83;;;9.70;99.90;;;;;;5136009;27;20606;-74
2024/02/09 05:53:59;;;;;;;4.50;4.10;;;9.70;99.90;;;;;;5135908;27;20182;-75
2024/02/09 05:56:29;;;;;;;4.33;4.03;;;9.70;99.90;;;;;;5135006;27;20178;-74
2024/02/09 05:58:56;;;;;;;4.40;4.00;;;9.60;99.90;;;;;;5108142;28;20193;-74
2024/02/09 06:01:22;;;;;;;5.00;4.40;;;9.60;99.90;;;;;;5112752;28;20549;-74
2024/02/09 06:03:48;;;;;;;4.80;4.40;;;9.60;99.90;;;;;;5112796;28;20575;-74
2024/02/09 06:06:18;;;;;;;4.70;4.30;;;9.60;99.90;;;;;;5113584;27;20208;-74
2024/02/09 06:08:46;;;;;;;4.73;4.40;;;9.60;99.90;;;;;;5112305;28;20210;-73
2024/02/09 06:11:18;;;;;;;4.77;4.27;;;9.50;99.90;;;;;;5111888;28;20245;-74
2024/02/09 06:13:45;;;;;;;4.50;4.20;;;9.50;99.90;;;;;;5113868;27;20176;-74
2024/02/09 06:16:14;;;;;;;4.73;4.33;;;9.50;99.90;;;;;;5112137;28;20283;-74
2024/02/09 06:18:42;;;;;;;6.53;4.27;;;9.40;99.90;;;;;;5111940;28;20193;-74
2024/02/09 06:21:08;;;;;;;4.80;4.47;;;9.30;99.90;;;;;;5111746;28;20176;-74
2024/02/09 06:23:35;;;;;;;5.00;4.60;;;9.30;99.90;;;;;;5111604;28;20165;-74
2024/02/09 06:26:01;;;;;;;5.07;4.23;;;9.20;99.90;;;;;;5111855;28;20618;-74
2024/02/09 06:28:27;;;;;;;5.13;4.73;;;9.20;99.90;;;;;;5112744;28;20193;-74
2024/02/09 06:30:53;;;;;;;5.27;4.77;;;9.30;99.90;;;;;;5111706;28;20251;-73
2024/02/09 06:33:19;;;;;;;4.90;4.30;;;9.30;99.90;;;;;;5116156;28;20259;-72
2024/02/09 06:35:50;;;;;;;5.47;5.07;;;9.40;99.90;;;;;;5111976;28;20173;-73
2024/02/09 06:38:17;;;;;;;5.30;4.80;;;9.40;99.90;;;;;;5111827;28;20208;-74
2024/02/09 06:40:43;;;;;;;4.93;4.50;;;9.40;99.90;;;;;;5094174;28;20205;-73
2024/02/09 06:43:09;;;;;;;5.33;4.90;;;9.40;99.90;;;;;;5111730;28;20207;-73
2024/02/09 06:45:35;;;;;;;5.43;4.80;;;9.50;99.90;;;;;;5111733;28;20264;-74
2024/02/09 06:48:02;;;;;;;5.13;4.63;;;9.50;99.90;;;;;;5111418;28;20202;-74
2024/02/09 06:50:29;;;;;;;5.87;4.73;;;9.60;99.90;;;;;;5111281;28;20241;-73
2024/02/09 06:52:55;;;;;;;5.50;5.00;;;9.60;99.90;;;;;;5110221;28;20258;-74
2024/02/09 06:55:22;;;;;;;5.10;4.67;;;9.60;99.90;;;;;;5121880;28;20184;-73
2024/02/09 06:57:48;;;;;;;5.30;4.80;;;9.60;99.90;;;;;;5131766;28;20183;-73
2024/02/09 07:00:15;;;;;;;6.87;5.13;;;9.70;99.90;;;;;;5131392;28;20176;-73
2024/02/09 07:02:42;;;;;;;5.30;4.97;;;9.70;99.90;;;;;;5131920;28;20588;-73
2024/02/09 07:05:11;;;;;;;5.13;4.63;;;9.70;99.90;;;;;;5131681;28;20279;-73
2024/02/09 07:07:43;;;;;;;7.00;4.70;;;9.70;99.90;;;;;;5129593;28;20617;-73
2024/02/09 07:10:13;;;;;;;5.40;4.90;;;9.70;99.90;;;;;;5110946;28;20161;-72
2024/02/09 07:12:42;;;;;;;4.73;4.37;;;9.70;99.90;;;;;;5111697;28;20165;-72
2024/02/09 07:15:08;;;;;;;6.07;5.20;;;9.70;99.90;;;;;;5110952;28;20164;-72
2024/02/09 07:17:35;;;;;;;5.50;5.10;;;9.80;99.90;;;;;;5111656;28;20193;-72
2024/02/09 07:20:04;;;;;;;5.53;5.07;;;9.70;99.90;;;;;;5110729;28;20284;-73
2024/02/09 07:22:35;;;;;;;5.83;4.93;;;9.80;99.90;;;;;;5117799;28;20172;-73
2024/02/09 07:25:02;;;;;;;6.50;4.93;;;9.80;99.90;;;;;;5111380;28;20641;-73
2024/02/09 07:27:28;;;;;;;6.23;5.67;;;9.80;99.90;;;;;;5111175;28;20574;-74
2024/02/09 07:29:54;;;;;;;8.63;5.93;;;9.80;99.90;;;;;;5110952;28;20161;-73
2024/02/09 07:32:20;;;;;;;6.93;5.60;;;9.80;99.90;;;;;;5110910;28;20633;-74
2024/02/09 07:34:46;;;;;;;11.43;5.50;;;9.80;99.90;;;;;;5126791;27;20659;-74
2024/02/09 07:37:13;;;;;;;5.63;5.03;;;9.90;99.90;;;;;;5116619;27;20275;-75
2024/02/09 07:39:39;;;;;;;7.70;6.00;;;9.90;99.90;;;;;;5135348;27;20174;-74
2024/02/09 07:42:04;;;;;;;7.17;5.67;;;9.90;99.90;;;;;;5134825;27;20376;-75
2024/02/09 07:44:30;;;;;;;8.93;5.70;;;9.90;99.90;;;;;;5136192;27;20247;-74
2024/02/09 07:46:56;;;;;;;5.90;5.37;;;9.90;99.90;;;;;;5135165;27;20252;-74
2024/02/09 07:49:24;;;;;;;5.70;5.10;;;9.90;99.90;;;;;;5128468;27;20244;-74
2024/02/09 07:51:50;;;;;;;6.87;5.43;;;9.90;99.90;;;;;;5114664;28;20161;-74
2024/02/09 07:54:17;;;;;;;8.57;5.53;;;9.90;99.90;;;;;;5114484;28;20655;-74
2024/02/09 07:56:42;;;;;;;7.03;6.10;;;10.00;99.90;;;;;;5114459;28;20245;-74
2024/02/09 07:59:08;;;;;;;9.63;5.67;;;10.00;99.90;;;;;;5114360;28;20219;-73
2024/02/09 08:01:33;;;;;;;6.17;5.57;;;10.00;99.90;;;;;;5096024;28;20620;-75
2024/02/09 08:03:59;;;;;;;9.37;6.00;;;10.00;99.90;;;;;;5115035;28;20176;-75
2024/02/09 08:06:25;;;;;;;8.40;5.80;;;10.10;99.90;;;;;;5114490;28;20356;-75
2024/02/09 08:08:52;;;;;;;5.80;5.30;;;10.10;99.90;;;;;;5109873;27;20679;-75
2024/02/09 08:11:19;;;;;;;6.33;5.83;;;10.10;99.90;;;;;;5134920;27;20164;-75
2024/02/09 08:13:45;;;;;;;6.83;5.43;;;10.20;99.90;;;;;;5128697;27;20181;-74
2024/02/09 08:16:11;;;;;;;7.60;5.97;;;10.20;99.90;;;;;;5114483;28;20177;-75
2024/02/09 08:18:36;;;;;;;6.40;5.77;;;10.20;99.90;;;;;;5115198;28;20249;-74
2024/02/09 08:21:02;;;;;;;8.50;5.73;;;10.30;99.90;;;;;;5114631;28;20261;-75
2024/02/09 08:23:29;;;;;;;10.83;5.37;;;10.30;99.90;;;;;;5113335;27;20272;-74
2024/02/09 08:25:55;;;;;;;6.37;5.83;;;10.40;99.90;;;;;;5114229;28;20205;-75
2024/02/09 08:28:20;;;;;;;5.60;5.10;;;10.40;99.90;;;;;;5100693;27;20196;-75
2024/02/09 08:30:46;;;;;;;8.47;5.83;;;10.40;99.90;;;;;;5134297;27;20176;-75
2024/02/09 08:33:12;;;;;;;5.57;5.07;;;10.50;99.90;;;;;;5134292;27;20239;-75
2024/02/09 08:35:38;;;;;;;5.53;5.03;;;10.50;99.90;;;;;;5134438;27;20164;-74
2024/02/09 08:38:03;;;;;;;7.50;5.10;;;10.60;99.90;;;;;;5133811;27;20204;-74
2024/02/09 08:40:29;;;;;;;7.30;4.93;;;10.60;99.90;;;;;;5133823;27;20236;-74
2024/02/09 08:42:54;;;;;;;5.20;4.70;;;10.70;99.90;;;;;;5133550;27;20188;-74
2024/02/09 08:45:20;;;;;;;6.77;5.50;;;10.70;99.90;;;;;;5135703;27;20311;-75
2024/02/09 08:47:46;;;;;;;7.37;5.07;;;10.70;99.90;;;;;;5135090;27;20195;-75
2024/02/09 08:50:11;;;;;;;8.30;5.10;;;10.70;99.90;;;;;;5132588;27;20629;-75
2024/02/09 08:52:37;;;;;;;5.87;5.33;;;10.70;99.90;;;;;;5127310;27;20176;-74
2024/02/09 08:55:03;;;;;;;5.10;4.73;;;10.80;99.90;;;;;;5113191;28;20172;-74
2024/02/09 08:57:29;;;;;;;6.30;4.60;;;10.90;99.90;;;;;;5113539;28;20311;-74
2024/02/09 08:59:54;;;;;;;5.40;4.70;;;10.90;99.90;;;;;;5113035;28;20177;-74
2024/02/09 09:02:20;;;;;;;7.37;5.00;;;10.90;99.90;;;;;;5112955;28;20648;-74
2024/02/09 09:04:46;;;;;;;5.00;4.50;;;10.90;99.90;;;;;;5114181;28;20299;-74
2024/02/09 09:07:12;;;;;;;10.03;4.70;;;11.00;99.90;;;;;;5117963;27;20592;-74
2024/02/09 09:09:38;;;;;;;5.10;4.60;;;11.00;99.90;;;;;;5134211;27;20257;-75
2024/02/09 09:12:04;;;;;;;5.83;4.90;;;11.00;99.90;;;;;;5133500;27;20176;-74
2024/02/09 09:14:32;;;;;;;5.63;4.90;;;11.10;99.90;;;;;;5133834;27;20168;-73
2024/02/09 09:16:58;;;;;;;4.50;4.13;;;11.20;99.90;;;;;;5132690;27;20652;-74
2024/02/09 09:19:23;;;;;;;4.80;4.47;;;11.30;99.90;;;;;;5133366;27;20168;-74
2024/02/09 09:21:49;;;;;;;5.97;4.20;;;11.40;99.90;;;;;;5133881;27;20169;-73
2024/02/09 09:24:16;;;;;;;4.80;4.43;;;11.50;99.90;;;;;;5120867;27;20188;-73
2024/02/09 09:26:42;;;;;;;5.23;4.23;;;11.60;99.90;;;;;;5112937;28;20176;-74
2024/02/09 09:29:10;;;;;;;4.47;4.10;;;11.60;99.90;;;;;;5112524;28;20196;-74
2024/02/09 09:31:36;;;;;;;4.30;4.00;;;11.70;99.90;;;;;;5112796;28;20822;-74
2024/02/09 09:34:03;;;;;;;4.70;4.30;;;11.70;99.90;;;;;;5112623;28;20248;-73
2024/02/09 09:36:33;;;;;;;4.80;4.10;;;11.80;99.90;;;;;;5112860;28;20262;-73
2024/02/09 09:39:02;;;;;;;4.50;4.10;;;11.90;99.90;;;;;;5121886;27;20206;-75
2024/02/09 09:41:28;;;;;;;4.03;3.73;;;12.00;99.90;;;;;;5134379;27;20164;-74
2024/02/09 09:43:53;;;;;;;4.50;4.10;;;12.10;99.90;;;;;;5134568;27;20195;-75
2024/02/09 09:46:22;;;;;;;4.27;3.93;;;12.20;99.90;;;;;;5133815;27;20566;-73
2024/02/09 09:48:54;;;;;;;4.33;3.93;;;12.40;99.90;;;;;;5134478;27;20226;-74
2024/02/09 09:51:22;;;;;;;4.53;3.80;;;12.40;99.90;;;;;;5134717;27;20568;-74
2024/02/09 09:53:52;;;;;;;5.90;4.07;;;12.40;99.90;;;;;;5105252;28;20203;-73
2024/02/09 09:56:18;;;;;;;4.37;3.97;;;12.50;99.90;;;;;;5114208;28;20165;-74
2024/02/09 09:58:45;;;;;;;3.50;3.30;;;12.40;99.90;;;;;;5111577;28;20185;-74
2024/02/09 10:01:12;;;;;;;4.40;3.60;;;12.40;99.90;;;;;;5112108;28;20173;-74
2024/02/09 10:03:45;;;;;;;5.70;3.70;;;12.30;99.90;;;;;;5115034;27;20218;-74
2024/02/09 10:06:11;;;;;;;3.67;3.43;;;12.30;99.90;;;;;;5132688;27;20192;-73
2024/02/09 10:08:38;;;;;;;4.10;3.70;;;12.30;99.90;;;;;;5133049;27;20251;-74
2024/02/09 10:11:06;;;;;;;4.03;3.67;;;12.20;99.90;;;;;;5132447;27;20165;-73
2024/02/09 10:13:33;;;;;;;4.33;3.53;;;12.20;99.90;;;;;;5126608;27;20176;-74
2024/02/09 10:16:03;;;;;;;5.43;3.87;;;12.20;99.90;;;;;;5132605;27;20540;-73
2024/02/09 10:18:33;;;;;;;4.17;3.77;;;12.20;99.90;;;;;;5132899;27;20244;-73
2024/02/09 10:20:59;;;;;;;6.50;4.57;;;12.20;99.90;;;;;;5132436;27;20225;-74
2024/02/09 10:23:28;;;;;;;5.10;4.50;;;12.20;99.90;;;;;;5133112;27;20610;-75
2024/02/09 10:25:55;;;;;;;4.07;3.70;;;12.20;99.90;;;;;;5132382;27;20202;-73
2024/02/09 10:28:23;;;;;;;7.77;3.77;;;12.20;99.90;;;;;;5132061;27;20180;-73
2024/02/09 10:30:52;;;;;;;6.57;4.33;;;12.30;99.90;;;;;;5130238;27;20179;-72
2024/02/09 10:33:20;;;;;;;7.67;4.20;;;12.30;99.90;;;;;;5132209;27;20556;-72
2024/02/09 10:35:46;;;;;;;10.20;4.17;;;12.40;99.90;;;;;;5132495;27;20198;-72
2024/02/09 10:38:12;;;;;;;3.80;3.50;;;12.40;99.90;;;;;;5114002;27;20700;-72
2024/02/09 10:40:38;;;;;;;6.67;3.83;;;12.50;99.90;;;;;;5131893;27;20422;-72
2024/02/09 10:43:04;;;;;;;4.27;3.50;;;12.50;99.90;;;;;;5132189;27;20168;-72
2024/02/09 10:45:32;;;;;;;4.57;3.53;;;12.50;99.90;;;;;;5117073;27;20413;-72
2024/02/09 10:47:59;;;;;;;4.27;3.87;;;12.50;99.90;;;;;;5115066;28;20192;-73
2024/02/09 10:50:30;;;;;;;5.60;3.53;;;12.60;99.90;;;;;;5111169;28;20264;-72
2024/02/09 10:53:00;;;;;;;5.47;3.70;;;12.70;99.90;;;;;;5111637;28;20171;-72
2024/02/09 10:55:33;;;;;;;3.83;3.53;;;12.80;99.90;;;;;;5111060;28;20494;-72
2024/02/09 10:57:59;;;;;;;4.33;3.47;;;12.80;99.90;;;;;;5112523;28;20561;-73
2024/02/09 11:00:26;;;;;;;3.70;3.40;;;12.90;99.90;;;;;;5110702;28;20176;-73
2024/02/09 11:02:52;;;;;;;5.33;3.43;;;12.90;99.90;;;;;;5111322;28;20643;-73
2024/02/09 11:05:18;;;;;;;3.87;3.57;;;13.00;99.90;;;;;;5093226;28;20701;-72
2024/02/09 11:07:46;;;;;;;5.97;4.03;;;12.90;99.90;;;;;;5111489;28;20181;-73
2024/02/09 11:10:16;;;;;;;5.80;3.50;;;12.90;99.90;;;;;;5127576;27;20176;-72
2024/02/09 11:12:43;;;;;;;4.30;3.70;;;12.90;99.90;;;;;;5136152;27;20164;-72
2024/02/09 11:15:13;;;;;;;4.27;3.70;;;12.80;99.90;;;;;;5130159;27;20707;-72
2024/02/09 11:17:45;;;;;;;3.87;3.57;;;12.80;99.90;;;;;;5135987;27;20196;-73
2024/02/09 11:20:13;;;;;;;4.07;3.70;;;12.80;99.90;;;;;;5135530;27;20199;-72
2024/02/09 11:22:40;;;;;;;4.57;3.70;;;12.70;99.90;;;;;;5135965;27;20176;-72
2024/02/09 11:25:09;;;;;;;3.70;3.40;;;12.70;99.90;;;;;;5135982;27;20263;-72
2024/02/09 11:27:36;;;;;;;4.53;3.73;;;12.70;99.90;;;;;;5115868;27;20196;-72
2024/02/09 11:30:03;;;;;;;4.77;3.80;;;12.70;99.90;;;;;;5135514;27;20160;-72
2024/02/09 11:32:29;;;;;;;3.93;3.60;;;12.60;99.90;;;;;;5135287;27;20243;-72
2024/02/09 11:34:59;;;;;;;3.80;3.50;;;12.60;99.90;;;;;;5135687;27;20172;-72
2024/02/09 11:39:53;;;;;;;3.87;3.37;;;12.70;99.90;;;;;;5093764;28;20605;-76
2024/02/09 11:42:19;;;;;;;4.50;3.93;;;12.70;99.90;;;;;;5114720;28;20198;-74
2024/02/09 11:44:46;;;;;;;3.73;3.43;;;12.80;99.90;;;;;;5115258;28;20196;-75
2024/02/09 11:47:13;;;;;;;4.33;3.63;;;12.90;99.90;;;;;;5115282;28;20517;-75
2024/02/09 11:49:42;;;;;;;3.50;3.20;;;13.00;99.90;;;;;;5095582;28;20565;-75
2024/02/09 11:52:09;;;;;;;3.97;3.67;;;13.10;99.90;;;;;;5071573;28;20181;-75
2024/02/09 11:54:35;;;;;;;3.67;3.37;;;13.20;99.90;;;;;;5066193;28;20189;-77
2024/02/09 11:57:01;;;;;;;3.73;3.43;;;13.10;99.90;;;;;;5074546;28;20230;-75
2024/02/09 11:59:28;;;;;;;4.43;4.00;;;13.20;99.90;;;;;;5074397;28;20261;-76
2024/02/09 12:01:54;;;;;;;3.83;3.50;;;13.10;99.90;;;;;;5074119;28;20186;-75
2024/02/09 12:04:21;;;;;;;5.27;3.50;;;13.20;99.90;;;;;;5074007;28;20201;-75
2024/02/09 12:06:47;;;;;;;5.63;3.60;;;13.20;99.90;;;;;;5074562;28;20544;-76
2024/02/09 12:09:14;;;;;;;4.17;3.87;;;13.30;99.90;;;;;;5083912;28;20189;-75
2024/02/09 12:11:39;;;;;;;3.77;3.47;;;13.50;99.90;;;;;;5094384;28;20170;-75
2024/02/09 12:14:05;;;;;;;5.60;4.00;;;13.60;99.90;;;;;;5076357;28;20200;-75
2024/02/09 12:16:31;;;;;;;3.93;3.63;;;13.80;99.90;;;;;;5095876;28;20165;-74
2024/02/09 12:18:58;;;;;;;3.80;3.50;;;13.90;99.90;;;;;;5098248;28;20186;-73
2024/02/09 12:21:24;;;;;;;3.77;3.47;;;14.00;99.90;;;;;;5094224;28;20249;-74
2024/02/09 12:23:51;;;;;;;2.97;2.77;;;14.10;99.90;;;;;;5084870;28;20231;-75
2024/02/09 12:26:19;;;;;;;3.10;2.80;;;14.10;99.90;;;;;;5077406;28;20204;-74
2024/02/09 12:28:48;;;;;;;3.40;3.20;;;14.20;99.90;;;;;;5093869;28;20565;-74
2024/02/09 12:31:17;;;;;;;5.07;3.33;;;14.30;99.90;;;;;;5093915;28;20546;-75
2024/02/09 12:33:46;;;;;;;4.07;3.70;;;14.50;99.90;;;;;;5093986;28;20196;-75
2024/02/09 12:36:20;;;;;;;3.33;3.03;;;14.60;99.90;;;;;;5073415;28;20669;-74
2024/02/09 12:38:55;;;;;;;4.50;3.30;;;14.70;99.90;;;;;;5073332;28;20643;-74
2024/02/09 12:41:21;;;;;;;3.97;3.20;;;14.70;99.90;;;;;;5075449;28;20174;-75
2024/02/09 12:43:56;;;;;;;4.47;3.17;;;14.70;99.90;;;;;;5093518;28;20258;-74
2024/02/09 12:46:24;;;;;;;3.40;3.20;;;14.70;99.90;;;;;;5093389;28;20246;-75
2024/02/09 12:48:50;;;;;;;3.53;3.23;;;14.70;99.90;;;;;;5093656;28;20681;-74
2024/02/09 12:51:17;;;;;;;5.13;3.20;;;14.70;99.90;;;;;;5091817;28;20261;-74
2024/02/09 12:53:43;;;;;;;3.37;3.07;;;14.60;99.90;;;;;;5093536;28;20244;-74
2024/02/09 12:56:10;;;;;;;4.33;2.90;;;14.60;99.90;;;;;;5093631;28;20243;-75
2024/02/09 12:58:35;;;;;;;4.70;3.17;;;14.50;99.90;;;;;;5090918;28;20266;-73
2024/02/09 13:01:03;;;;;;;3.60;3.00;;;14.40;99.90;;;;;;5073057;28;20175;-73
2024/02/09 13:03:29;;;;;;;3.27;2.97;;;14.30;99.90;;;;;;5073096;28;20185;-74
2024/02/09 13:05:54;;;;;;;3.40;3.10;;;14.30;99.90;;;;;;5082057;28;20209;-73
2024/02/09 13:08:23;;;;;;;3.53;3.23;;;14.20;99.90;;;;;;5093054;28;20189;-74
2024/02/09 13:10:51;;;;;;;4.30;3.57;;;14.20;99.90;;;;;;5093123;28;20165;-75
2024/02/09 13:13:18;;;;;;;3.60;3.30;;;14.20;99.90;;;;;;5091401;28;20647;-76
2024/02/09 13:15:44;;;;;;;3.80;3.27;;;14.20;99.90;;;;;;5082019;28;20702;-74
2024/02/09 13:18:10;;;;;;;3.33;3.03;;;14.20;99.90;;;;;;5066747;28;20296;-74
2024/02/09 13:20:36;;;;;;;3.43;3.17;;;14.20;99.90;;;;;;5086531;28;20209;-75
2024/02/09 13:23:03;;;;;;;4.87;3.50;;;14.10;99.90;;;;;;5092805;28;20227;-74
2024/02/09 13:25:33;;;;;;;3.83;3.00;;;14.20;99.90;;;;;;5072584;28;20720;-74
2024/02/09 13:27:59;;;;;;;4.33;3.23;;;14.20;99.90;;;;;;5072720;28;20193;-75
2024/02/09 13:30:28;;;;;;;5.27;3.63;;;14.10;99.90;;;;;;5072113;28;20223;-74
2024/02/09 13:32:57;;;;;;;6.73;3.23;;;14.10;99.90;;;;;;5072225;28;20634;-74
2024/02/09 13:35:24;;;;;;;3.77;3.47;;;14.10;99.90;;;;;;5072255;28;20535;-74
2024/02/09 13:37:50;;;;;;;4.47;3.20;;;14.00;99.90;;;;;;5072145;28;20204;-75
2024/02/09 13:40:17;;;;;;;4.53;3.27;;;14.00;99.90;;;;;;5092099;28;20181;-75
2024/02/09 13:42:51;;;;;;;3.83;3.43;;;13.90;99.90;;;;;;5093047;28;20169;-74
2024/02/09 13:45:21;;;;;;;4.27;3.50;;;13.90;99.90;;;;;;5092211;28;20262;-74
2024/02/09 13:47:47;;;;;;;3.90;3.60;;;13.80;99.90;;;;;;5092497;28;20743;-73
2024/02/09 13:50:15;;;;;;;3.60;3.30;;;13.80;99.90;;;;;;5091963;28;20169;-75
2024/02/09 13:52:45;;;;;;;3.37;2.93;;;13.80;99.90;;;;;;5078339;28;20272;-76
2024/02/09 13:55:15;;;;;;;5.20;3.10;;;13.80;99.90;;;;;;5071920;28;20181;-74
2024/02/09 13:57:59;;;;;;;3.50;3.20;;;13.80;99.90;;;;;;5071790;28;20194;-74
2024/02/09 14:00:25;;;;;;;3.80;3.23;;;13.80;99.90;;;;;;5071215;28;20407;-74
2024/02/09 14:02:51;;;;;;;3.60;2.80;;;13.80;99.90;;;;;;5071826;28;20257;-74
2024/02/09 14:05:17;;;;;;;3.97;3.20;;;13.80;99.90;;;;;;5071670;28;20205;-74
2024/02/09 14:07:42;;;;;;;3.53;3.00;;;13.80;99.90;;;;;;5087176;28;20201;-75
2024/02/09 14:10:10;;;;;;;4.27;3.40;;;13.70;99.90;;;;;;5089947;28;20641;-75
2024/02/09 14:12:36;;;;;;;3.30;3.10;;;13.70;99.90;;;;;;5073481;28;20174;-74
2024/02/09 14:15:02;;;;;;;4.53;4.13;;;13.70;99.90;;;;;;5071589;28;20539;-74
2024/02/09 14:17:29;;;;;;;4.10;3.80;;;13.70;99.90;;;;;;5071352;28;20556;-74
2024/02/09 14:19:55;;;;;;;4.13;3.70;;;13.70;99.90;;;;;;5071479;28;20178;-74
2024/02/09 14:22:21;;;;;;;6.03;3.70;;;13.70;99.90;;;;;;5070965;28;20261;-75
2024/02/09 14:24:46;;;;;;;3.83;3.43;;;13.80;99.90;;;;;;5071887;28;20271;-75
2024/02/09 14:27:14;;;;;;;3.97;3.47;;;13.80;99.90;;;;;;5071485;28;20171;-75
2024/02/09 14:29:40;;;;;;;3.43;3.20;;;13.80;99.90;;;;;;5071167;28;20196;-74
2024/02/09 14:32:09;;;;;;;4.00;3.30;;;13.80;99.90;;;;;;5071196;28;20651;-75
2024/02/09 14:34:38;;;;;;;5.33;3.37;;;13.90;99.90;;;;;;5076452;28;20257;-75
2024/02/09 14:37:04;;;;;;;4.17;3.80;;;13.80;99.90;;;;;;5082850;28;20196;-76
2024/02/09 14:39:30;;;;;;;3.97;3.57;;;13.80;99.90;;;;;;5084390;28;20205;-76